Highest pressure

Not for real navigation. The accuracy of this data is not assured See disclaimer for more information



ICAO NAME COUNTRY WIND Kt GUST Kt VIS m TEMP/DEW C BARO METAR
SLPO Potosi Bolivia 0 0 9999 7/-1 30.77 SLPO 271300Z 00000KT 9999 NSC 07/M01 Q1042
SLLP La Paz / Alto Bolivia 5 0 9999 5/4 30.74 SLLP 271307Z 09005KT 3000E VCFG FEW002 SCT010 BKN200 05/04 Q1041
SLOR Oruro Bolivia 5 0 9999 6/4 30.71 SLOR 271300Z 36005KT 9999 FEW015 BKN070 06/04 Q1040
SPJL Juliaca Peru 4 0 9999 4/1 30.65 SPJL 271200Z 29004KT 9999 SCT020 04/01 Q1038 RMK PP000
SPHY Andahuayla Peru 0 0 8000 6/-2 30.62 SPHY 271200Z /////KT 8000 SCT015 BKN070 06/M02 Q1037 RMK TNM 1.6 BIRD HAZARD RWY03/21 PP000

Show more